This is the latest recevied weather packets stored in our database for station/object UR7D-12. If no packets are shown the sender has not sent any weather packets the latest 10 day(s).
| Time | Temp. | Humidity | Pressure | Rain* | Wind** | Luminosity | Snow |
|---|---|---|---|---|---|---|---|
| 1777843085 | 13.33° C | 58% | 992.6 hPa | 0 mm | - | - | - |
| 1777842484 | 13.89° C | 56% | 992.6 hPa | 0 mm | - | - | - |
| 1777841882 | 13.89° C | 55% | 992.6 hPa | 0 mm | - | - | - |
| 1777840682 | 15° C | 52% | 992.6 hPa | 0 mm | - | - | - |
| 1777840080 | 15° C | 51% | 992.6 hPa | 0 mm | - | - | - |
| 1777839780 | 15° C | 51% | 992.5 hPa | 0 mm | - | - | - |
| 1777839181 | 15° C | 51% | 992.5 hPa | 0 mm | - | - | - |
| 1777836779 | 15.56° C | 50% | 992.5 hPa | 0 mm | - | - | - |
| 1777835877 | 15° C | 54% | 992.6 hPa | 0 mm | - | - | - |
| 1777834976 | 16.11° C | 49% | 992.5 hPa | 0 mm | - | - | - |
| 1777833175 | 15.56° C | 51% | 992.4 hPa | 0 mm | - | - | - |
| 1777831673 | 17.22° C | 46% | 992.1 hPa | 0 mm | - | - | - |
| 1777824467 | 20° C | 39% | 992.1 hPa | 0 mm | - | - | - |
| 1777824167 | 20.56° C | 38% | 992.1 hPa | 0 mm | - | - | - |
| 1777822065 | 20.56° C | 38% | 992.4 hPa | 0 mm | - | - | - |
| 1777820864 | 20.56° C | 39% | 992.4 hPa | 0 mm | - | - | - |
| 1777820563 | 20.56° C | 40% | 992.5 hPa | 0 mm | - | - | - |
| 1777819062 | 20° C | 38% | 992.6 hPa | 0 mm | - | - | - |
| 1777818762 | 20.56° C | 38% | 992.7 hPa | 0 mm | - | - | - |
| 1777817861 | 20° C | 40% | 992.7 hPa | 0 mm | - | - | - |
| 1777817561 | 20° C | 41% | 992.9 hPa | 0 mm | - | - | - |
| 1777816660 | 20° C | 40% | 993.1 hPa | 0 mm | - | - | - |
| 1777815459 | 20° C | 40% | 993.3 hPa | 0 mm | - | - | - |
| 1777814558 | 20° C | 42% | 993.3 hPa | 0 mm | - | - | - |
| 1777813657 | 20° C | 39% | 993.8 hPa | 0 mm | - | - | - |
* Rain latest hour (hover to see other rain measurements)
** Current wind speed in m/s (hover to see current wind gust speed)